sensor_id;sensor_type;location;lat;lon;timestamp;pressure;altitude;pressure_sealevel;temperature;humidity
50852;BME280;43953;45.508;-122.806;2024-03-23T00:51:28;99834.94;;;25.12;38.38
50852;BME280;43953;45.508;-122.806;2024-03-23T00:51:59;99834.94;;;25.12;38.38
50852;BME280;43953;45.508;-122.806;2024-03-23T00:53:37;99830.59;;;25.11;38.45
50852;BME280;43953;45.508;-122.806;2024-03-23T00:54:09;99827.84;;;25.11;38.50
50852;BME280;43953;45.508;-122.806;2024-03-23T00:54:40;99832.50;;;25.11;38.61
50852;BME280;43953;45.508;-122.806;2024-03-23T00:55:12;99830.59;;;25.11;38.49
50852;BME280;43953;45.508;-122.806;2024-03-23T00:55:44;99825.88;;;25.12;38.35
50852;BME280;43953;45.508;-122.806;2024-03-23T00:56:16;99828.63;;;25.12;38.45
50852;BME280;43953;45.508;-122.806;2024-03-23T00:56:47;99829.75;;;25.11;38.34
50852;BME280;43953;45.508;-122.806;2024-03-23T00:57:19;99818.28;;;25.09;38.29
50852;BME280;43953;45.508;-122.806;2024-03-23T00:57:51;99815.97;;;25.11;38.40
50852;BME280;43953;45.508;-122.806;2024-03-23T00:58:22;99817.63;;;25.12;38.60
50852;BME280;43953;45.508;-122.806;2024-03-23T00:58:54;99823.94;;;25.12;38.33
50852;BME280;43953;45.508;-122.806;2024-03-23T00:59:26;99817.94;;;25.10;38.42
50852;BME280;43953;45.508;-122.806;2024-03-23T00:59:59;99817.13;;;25.10;38.43
50852;BME280;43953;45.508;-122.806;2024-03-23T01:00:31;99819.88;;;25.10;38.24
50852;BME280;43953;45.508;-122.806;2024-03-23T01:01:03;99817.63;;;25.12;38.28
50852;BME280;43953;45.508;-122.806;2024-03-23T01:01:35;99820.38;;;25.12;38.57
50852;BME280;43953;45.508;-122.806;2024-03-23T01:02:07;99823.94;;;25.12;38.34
50852;BME280;43953;45.508;-122.806;2024-03-23T01:02:38;99814.88;;;25.12;38.41
50852;BME280;43953;45.508;-122.806;2024-03-23T01:03:10;99815.66;;;25.12;38.52
50852;BME280;43953;45.508;-122.806;2024-03-23T01:03:42;99812.09;;;25.12;38.49
50852;BME280;43953;45.508;-122.806;2024-03-23T01:04:14;99817.63;;;25.12;38.39
50852;BME280;43953;45.508;-122.806;2024-03-23T01:04:45;99821.19;;;25.12;38.56
50852;BME280;43953;45.508;-122.806;2024-03-23T01:05:17;99820.38;;;25.12;38.61
50852;BME280;43953;45.508;-122.806;2024-03-23T01:05:49;99820.38;;;25.12;38.40
50852;BME280;43953;45.508;-122.806;2024-03-23T01:06:20;99824.72;;;25.13;38.61
50852;BME280;43953;45.508;-122.806;2024-03-23T01:06:52;99821.47;;;25.11;38.22
50852;BME280;43953;45.508;-122.806;2024-03-23T01:07:24;99810.47;;;25.11;38.58
50852;BME280;43953;45.508;-122.806;2024-03-23T01:07:55;99817.63;;;25.12;38.26
50852;BME280;43953;45.508;-122.806;2024-03-23T01:08:27;99816.81;;;25.11;38.53
50852;BME280;43953;45.508;-122.806;2024-03-23T01:08:59;99810.47;;;25.11;38.50
50852;BME280;43953;45.508;-122.806;2024-03-23T01:09:31;99807.72;;;25.11;38.67
50852;BME280;43953;45.508;-122.806;2024-03-23T01:10:03;99807.25;;;25.09;38.53
50852;BME280;43953;45.508;-122.806;2024-03-23T01:10:35;99811.31;;;25.11;38.36
50852;BME280;43953;45.508;-122.806;2024-03-23T01:11:07;99808.56;;;25.11;38.48
50852;BME280;43953;45.508;-122.806;2024-03-23T01:11:39;99802.56;;;25.09;38.71
50852;BME280;43953;45.508;-122.806;2024-03-23T01:12:11;99810.47;;;25.11;38.75
50852;BME280;43953;45.508;-122.806;2024-03-23T01:12:43;99803.34;;;25.10;38.83
50852;BME280;43953;45.508;-122.806;2024-03-23T01:13:14;99811.63;;;25.10;38.57
50852;BME280;43953;45.508;-122.806;2024-03-23T01:13:46;99802.22;;;25.11;38.76
50852;BME280;43953;45.508;-122.806;2024-03-23T01:14:18;99803.03;;;25.11;38.89
50852;BME280;43953;45.508;-122.806;2024-03-23T01:14:49;99803.84;;;25.12;38.55
50852;BME280;43953;45.508;-122.806;2024-03-23T01:15:21;99801.91;;;25.12;38.74
50852;BME280;43953;45.508;-122.806;2024-03-23T01:15:54;99798.34;;;25.12;38.75
50852;BME280;43953;45.508;-122.806;2024-03-23T01:16:26;99801.09;;;25.12;38.69
50852;BME280;43953;45.508;-122.806;2024-03-23T01:16:58;99801.09;;;25.12;38.74
50852;BME280;43953;45.508;-122.806;2024-03-23T01:17:29;99795.59;;;25.12;38.76
50852;BME280;43953;45.508;-122.806;2024-03-23T01:18:01;99791.69;;;25.13;38.80
50852;BME280;43953;45.508;-122.806;2024-03-23T01:18:33;99796.06;;;25.14;38.97
50852;BME280;43953;45.508;-122.806;2024-03-23T01:19:04;99793.31;;;25.14;38.74
50852;BME280;43953;45.508;-122.806;2024-03-23T01:19:37;99790.56;;;25.14;39.02
50852;BME280;43953;45.508;-122.806;2024-03-23T01:20:10;99793.81;;;25.16;38.97
50852;BME280;43953;45.508;-122.806;2024-03-23T01:20:42;99790.25;;;25.15;38.73
50852;BME280;43953;45.508;-122.806;2024-03-23T01:21:14;99787.81;;;25.14;38.66
50852;BME280;43953;45.508;-122.806;2024-03-23T01:21:45;99791.06;;;25.16;38.80
50852;BME280;43953;45.508;-122.806;2024-03-23T01:22:17;99796.56;;;25.16;38.80
50852;BME280;43953;45.508;-122.806;2024-03-23T01:22:49;99790.25;;;25.15;38.87
50852;BME280;43953;45.508;-122.806;2024-03-23T01:23:20;99789.44;;;25.15;38.81
50852;BME280;43953;45.508;-122.806;2024-03-23T01:23:52;99790.56;;;25.14;38.70
50852;BME280;43953;45.508;-122.806;2024-03-23T01:24:24;99788.63;;;25.14;38.81
50852;BME280;43953;45.508;-122.806;2024-03-23T01:24:55;99784.75;;;25.15;38.76
50852;BME280;43953;45.508;-122.806;2024-03-23T01:25:27;99788.63;;;25.14;38.69
50852;BME280;43953;45.508;-122.806;2024-03-23T01:25:59;99787.81;;;25.14;38.89
50852;BME280;43953;45.508;-122.806;2024-03-23T01:26:30;99794.94;;;25.15;38.95
50852;BME280;43953;45.508;-122.806;2024-03-23T01:27:02;99788.94;;;25.13;38.94
50852;BME280;43953;45.508;-122.806;2024-03-23T01:27:34;99791.69;;;25.13;38.58
50852;BME280;43953;45.508;-122.806;2024-03-23T01:28:06;99791.69;;;25.13;38.70
50852;BME280;43953;45.508;-122.806;2024-03-23T01:28:38;99788.94;;;25.13;38.87
50852;BME280;43953;45.508;-122.806;2024-03-23T01:29:11;99792.50;;;25.13;38.95
50852;BME280;43953;45.508;-122.806;2024-03-23T01:29:42;99784.56;;;25.12;38.54
50852;BME280;43953;45.508;-122.806;2024-03-23T01:30:14;99779.06;;;25.12;38.90
50852;BME280;43953;45.508;-122.806;2024-03-23T01:30:47;99781.00;;;25.11;38.89
50852;BME280;43953;45.508;-122.806;2024-03-23T01:31:19;99781.00;;;25.11;38.86
50852;BME280;43953;45.508;-122.806;2024-03-23T01:31:51;99773.53;;;25.12;38.70
50852;BME280;43953;45.508;-122.806;2024-03-23T01:32:22;99779.06;;;25.12;38.84
50852;BME280;43953;45.508;-122.806;2024-03-23T01:32:54;99771.91;;;25.11;39.04
50852;BME280;43953;45.508;-122.806;2024-03-23T01:33:26;99774.66;;;25.11;39.20
50852;BME280;43953;45.508;-122.806;2024-03-23T01:33:58;99776.63;;;25.10;38.97
50852;BME280;43953;45.508;-122.806;2024-03-23T01:34:29;99776.63;;;25.10;39.08
50852;BME280;43953;45.508;-122.806;2024-03-23T01:35:01;99776.63;;;25.10;39.14
50852;BME280;43953;45.508;-122.806;2024-03-23T01:35:33;99779.72;;;25.09;38.99
50852;BME280;43953;45.508;-122.806;2024-03-23T01:36:05;99778.56;;;25.10;39.18
50852;BME280;43953;45.508;-122.806;2024-03-23T01:36:36;99784.88;;;25.10;39.12
50852;BME280;43953;45.508;-122.806;2024-03-23T01:37:08;99786.84;;;25.10;39.12
50852;BME280;43953;45.508;-122.806;2024-03-23T01:37:40;99791.53;;;25.09;39.01
50852;BME280;43953;45.508;-122.806;2024-03-23T01:38:11;99796.25;;;25.09;39.15
50852;BME280;43953;45.508;-122.806;2024-03-23T01:38:43;99787.97;;;25.09;39.35
50852;BME280;43953;45.508;-122.806;2024-03-23T01:39:15;99785.22;;;25.09;39.13
50852;BME280;43953;45.508;-122.806;2024-03-23T01:39:46;99796.25;;;25.09;39.26
50852;BME280;43953;45.508;-122.806;2024-03-23T01:40:18;99787.97;;;25.09;39.21
50852;BME280;43953;45.508;-122.806;2024-03-23T01:40:56;99792.34;;;25.10;39.13
50852;BME280;43953;45.508;-122.806;2024-03-23T01:41:28;99784.88;;;25.10;39.51
50852;BME280;43953;45.508;-122.806;2024-03-23T01:42:00;99780.50;;;25.09;39.52
50852;BME280;43953;45.508;-122.806;2024-03-23T01:42:32;99778.25;;;25.11;39.68
50852;BME280;43953;45.508;-122.806;2024-03-23T01:43:05;99779.06;;;25.12;39.53
50852;BME280;43953;45.508;-122.806;2024-03-23T01:43:39;99782.31;;;25.14;39.64
50852;BME280;43953;45.508;-122.806;2024-03-23T01:44:12;99771.28;;;25.14;39.68
50852;BME280;43953;45.508;-122.806;2024-03-23T01:44:44;99776.97;;;25.17;39.44
50852;BME280;43953;45.508;-122.806;2024-03-23T01:45:15;99776.63;;;25.19;39.72
50852;BME280;43953;45.508;-122.806;2024-03-23T01:45:47;99779.06;;;25.21;39.50
50852;BME280;43953;45.508;-122.806;2024-03-23T01:46:19;99777.09;;;25.21;39.60
50852;BME280;43953;45.508;-122.806;2024-03-23T01:46:50;99775.66;;;25.24;39.30
50852;BME280;43953;45.508;-122.806;2024-03-23T01:47:23;99771.44;;;25.26;39.43
50852;BME280;43953;45.508;-122.806;2024-03-23T01:47:54;99774.97;;;25.27;39.49
50852;BME280;43953;45.508;-122.806;2024-03-23T01:48:26;99771.06;;;25.28;39.45
50852;BME280;43953;45.508;-122.806;2024-03-23T01:48:58;99764.41;;;25.29;39.38
50852;BME280;43953;45.508;-122.806;2024-03-23T01:49:31;99775.94;;;25.31;39.33
50852;BME280;43953;45.508;-122.806;2024-03-23T01:50:03;99767.34;;;25.32;39.18
50852;BME280;43953;45.508;-122.806;2024-03-23T01:50:35;99772.84;;;25.32;39.39
50852;BME280;43953;45.508;-122.806;2024-03-23T01:51:06;99766.50;;;25.32;39.44
50852;BME280;43953;45.508;-122.806;2024-03-23T01:51:39;99772.03;;;25.32;39.38
50852;BME280;43953;45.508;-122.806;2024-03-23T01:52:11;99772.03;;;25.32;39.38
50852;BME280;43953;45.508;-122.806;2024-03-23T01:52:43;99775.59;;;25.32;39.07
50852;BME280;43953;45.508;-122.806;2024-03-23T01:53:15;99770.09;;;25.32;39.02
50852;BME280;43953;45.508;-122.806;2024-03-23T01:53:53;99775.59;;;25.32;38.94
50852;BME280;43953;45.508;-122.806;2024-03-23T01:54:25;99767.34;;;25.32;39.25
50852;BME280;43953;45.508;-122.806;2024-03-23T01:54:57;99766.50;;;25.32;39.22
50852;BME280;43953;45.508;-122.806;2024-03-23T01:55:29;99770.41;;;25.31;38.93
50852;BME280;43953;45.508;-122.806;2024-03-23T01:56:02;99770.41;;;25.31;39.04
50852;BME280;43953;45.508;-122.806;2024-03-23T01:56:34;99761.66;;;25.29;39.00
50852;BME280;43953;45.508;-122.806;2024-03-23T01:57:06;99771.56;;;25.30;39.08
50852;BME280;43953;45.508;-122.806;2024-03-23T01:57:38;99769.63;;;25.30;38.85
50852;BME280;43953;45.508;-122.806;2024-03-23T01:58:10;99772.69;;;25.29;39.31
50852;BME280;43953;45.508;-122.806;2024-03-23T01:58:41;99760.84;;;25.28;38.92
50852;BME280;43953;45.508;-122.806;2024-03-23T01:59:13;99763.63;;;25.28;38.89
50852;BME280;43953;45.508;-122.806;2024-03-23T01:59:45;99771.06;;;25.28;38.86
50852;BME280;43953;45.508;-122.806;2024-03-23T02:00:17;99763.63;;;25.28;38.82
50852;BME280;43953;45.508;-122.806;2024-03-23T02:00:49;99770.28;;;25.27;39.14
50852;BME280;43953;45.508;-122.806;2024-03-23T02:01:20;99761.53;;;25.25;39.10
50852;BME280;43953;45.508;-122.806;2024-03-23T02:01:52;99757.66;;;25.26;38.89
50852;BME280;43953;45.508;-122.806;2024-03-23T02:02:24;99759.56;;;25.26;39.17
50852;BME280;43953;45.508;-122.806;2024-03-23T02:02:55;99758.44;;;25.27;39.03
50852;BME280;43953;45.508;-122.806;2024-03-23T02:03:28;99756.00;;;25.25;38.92
50852;BME280;43953;45.508;-122.806;2024-03-23T02:03:59;99756.00;;;25.25;39.07
50852;BME280;43953;45.508;-122.806;2024-03-23T02:04:31;99761.53;;;25.25;39.24
50852;BME280;43953;45.508;-122.806;2024-03-23T02:05:03;99761.53;;;25.25;39.15
50852;BME280;43953;45.508;-122.806;2024-03-23T02:05:35;99754.41;;;25.24;39.01
50852;BME280;43953;45.508;-122.806;2024-03-23T02:06:06;99753.59;;;25.24;39.27
50852;BME280;43953;45.508;-122.806;2024-03-23T02:06:39;99755.22;;;25.25;39.12
50852;BME280;43953;45.508;-122.806;2024-03-23T02:07:11;99757.97;;;25.25;39.27
50852;BME280;43953;45.508;-122.806;2024-03-23T02:07:43;99757.16;;;25.24;39.05
50852;BME280;43953;45.508;-122.806;2024-03-23T02:08:15;99754.41;;;25.24;39.13
50852;BME280;43953;45.508;-122.806;2024-03-23T02:08:48;99751.97;;;25.23;39.05
50852;BME280;43953;45.508;-122.806;2024-03-23T02:09:19;99752.81;;;25.23;39.07
50852;BME280;43953;45.508;-122.806;2024-03-23T02:09:51;99750.03;;;25.23;38.97
50852;BME280;43953;45.508;-122.806;2024-03-23T02:10:24;99752.81;;;25.23;39.25
50852;BME280;43953;45.508;-122.806;2024-03-23T02:10:55;99746.47;;;25.23;39.11
50852;BME280;43953;45.508;-122.806;2024-03-23T02:11:27;99758.31;;;25.23;39.30
50852;BME280;43953;45.508;-122.806;2024-03-23T02:11:59;99747.28;;;25.23;39.32
50852;BME280;43953;45.508;-122.806;2024-03-23T02:12:33;99744.84;;;25.22;39.08
50852;BME280;43953;45.508;-122.806;2024-03-23T02:13:05;99742.91;;;25.22;39.11
50852;BME280;43953;45.508;-122.806;2024-03-23T02:13:37;99742.09;;;25.22;39.33
50852;BME280;43953;45.508;-122.806;2024-03-23T02:14:08;99745.66;;;25.22;38.96
50852;BME280;43953;45.508;-122.806;2024-03-23T02:14:40;99741.28;;;25.21;39.46
50852;BME280;43953;45.508;-122.806;2024-03-23T02:15:12;99738.53;;;25.21;39.22
50852;BME280;43953;45.508;-122.806;2024-03-23T02:15:43;99733.03;;;25.21;39.07
50852;BME280;43953;45.508;-122.806;2024-03-23T02:16:15;99728.63;;;25.20;39.07
50852;BME280;43953;45.508;-122.806;2024-03-23T02:16:47;99722.31;;;25.19;39.15
50852;BME280;43953;45.508;-122.806;2024-03-23T02:17:19;99725.88;;;25.20;39.31
50852;BME280;43953;45.508;-122.806;2024-03-23T02:17:51;99720.38;;;25.20;39.31
50852;BME280;43953;45.508;-122.806;2024-03-23T02:18:22;99713.25;;;25.19;39.20
50852;BME280;43953;45.508;-122.806;2024-03-23T02:18:54;99707.75;;;25.19;39.35
50852;BME280;43953;45.508;-122.806;2024-03-23T02:19:26;99716.00;;;25.19;39.33
50852;BME280;43953;45.508;-122.806;2024-03-23T02:19:58;99712.78;;;25.17;39.36
50852;BME280;43953;45.508;-122.806;2024-03-23T02:20:29;99710.84;;;25.17;39.18
50852;BME280;43953;45.508;-122.806;2024-03-23T02:21:01;99707.28;;;25.17;39.12
50852;BME280;43953;45.508;-122.806;2024-03-23T02:21:33;99714.41;;;25.18;39.37
50852;BME280;43953;45.508;-122.806;2024-03-23T02:22:04;99707.28;;;25.17;39.32
50852;BME280;43953;45.508;-122.806;2024-03-23T02:22:37;99709.56;;;25.15;39.22
50852;BME280;43953;45.508;-122.806;2024-03-23T02:23:18;99709.56;;;25.15;39.39
50852;BME280;43953;45.508;-122.806;2024-03-23T02:23:50;99710.38;;;25.15;39.26
50852;BME280;43953;45.508;-122.806;2024-03-23T02:24:21;99706.81;;;25.15;39.19
50852;BME280;43953;45.508;-122.806;2024-03-23T02:24:53;99703.25;;;25.14;39.32
50852;BME280;43953;45.508;-122.806;2024-03-23T02:25:25;99704.38;;;25.13;39.25
50852;BME280;43953;45.508;-122.806;2024-03-23T02:25:57;99700.78;;;25.13;39.28
50852;BME280;43953;45.508;-122.806;2024-03-23T02:26:28;99704.38;;;25.13;39.18
50852;BME280;43953;45.508;-122.806;2024-03-23T02:27:00;99703.53;;;25.13;39.33
50852;BME280;43953;45.508;-122.806;2024-03-23T02:27:32;99702.75;;;25.12;39.36
50852;BME280;43953;45.508;-122.806;2024-03-23T02:28:06;99709.06;;;25.13;39.48
50852;BME280;43953;45.508;-122.806;2024-03-23T02:28:37;99699.19;;;25.12;39.28
50852;BME280;43953;45.508;-122.806;2024-03-23T02:29:09;99701.94;;;25.12;39.39
50852;BME280;43953;45.508;-122.806;2024-03-23T02:29:41;99699.19;;;25.12;39.31
50852;BME280;43953;45.508;-122.806;2024-03-23T02:30:12;99700.28;;;25.11;39.14
50852;BME280;43953;45.508;-122.806;2024-03-23T02:30:44;99702.75;;;25.12;39.22
50852;BME280;43953;45.508;-122.806;2024-03-23T02:31:16;99693.66;;;25.12;39.55
50852;BME280;43953;45.508;-122.806;2024-03-23T02:31:47;99697.22;;;25.12;39.28
50852;BME280;43953;45.508;-122.806;2024-03-23T02:32:19;99699.97;;;25.12;39.60
50852;BME280;43953;45.508;-122.806;2024-03-23T02:32:51;99698.03;;;25.13;39.50
50852;BME280;43953;45.508;-122.806;2024-03-23T02:33:23;99698.03;;;25.13;39.24
50852;BME280;43953;45.508;-122.806;2024-03-23T02:33:55;99706.00;;;25.14;39.53
50852;BME280;43953;45.508;-122.806;2024-03-23T02:34:26;99705.19;;;25.14;39.58
50852;BME280;43953;45.508;-122.806;2024-03-23T02:34:58;99701.31;;;25.15;39.49
50852;BME280;43953;45.508;-122.806;2024-03-23T02:35:30;99707.63;;;25.15;39.30
50852;BME280;43953;45.508;-122.806;2024-03-23T02:36:02;99689.75;;;25.13;39.68
50852;BME280;43953;45.508;-122.806;2024-03-23T02:36:34;99709.22;;;25.16;39.46
50852;BME280;43953;45.508;-122.806;2024-03-23T02:37:10;99708.41;;;25.16;39.30
50852;BME280;43953;45.508;-122.806;2024-03-23T02:37:42;99702.09;;;25.15;39.25
50852;BME280;43953;45.508;-122.806;2024-03-23T02:38:14;99700.16;;;25.16;39.44
50852;BME280;43953;45.508;-122.806;2024-03-23T02:38:46;99708.41;;;25.16;39.25
50852;BME280;43953;45.508;-122.806;2024-03-23T02:39:18;99702.91;;;25.16;39.25
50852;BME280;43953;45.508;-122.806;2024-03-23T02:39:49;99703.25;;;25.14;39.49
50852;BME280;43953;45.508;-122.806;2024-03-23T02:40:23;99707.63;;;25.15;39.49
50852;BME280;43953;45.508;-122.806;2024-03-23T02:40:55;99708.75;;;25.14;39.37
50852;BME280;43953;45.508;-122.806;2024-03-23T02:41:32;99707.94;;;25.14;39.35
50852;BME280;43953;45.508;-122.806;2024-03-23T02:42:04;99698.03;;;25.13;39.10
50852;BME280;43953;45.508;-122.806;2024-03-23T02:42:35;99703.53;;;25.13;39.39
50852;BME280;43953;45.508;-122.806;2024-03-23T02:43:07;99706.28;;;25.13;39.48
50852;BME280;43953;45.508;-122.806;2024-03-23T02:43:39;99699.66;;;25.14;39.39
50852;BME280;43953;45.508;-122.806;2024-03-23T02:44:10;99703.53;;;25.13;39.53
50852;BME280;43953;45.508;-122.806;2024-03-23T02:44:45;99707.44;;;25.12;39.63
50852;BME280;43953;45.508;-122.806;2024-03-23T02:45:16;99699.19;;;25.12;39.18
50852;BME280;43953;45.508;-122.806;2024-03-23T02:45:48;99698.38;;;25.11;39.49
50852;BME280;43953;45.508;-122.806;2024-03-23T02:46:20;99701.94;;;25.12;39.32
50852;BME280;43953;45.508;-122.806;2024-03-23T02:46:52;99701.13;;;25.11;39.25
50852;BME280;43953;45.508;-122.806;2024-03-23T02:47:23;99704.19;;;25.10;39.35
50852;BME280;43953;45.508;-122.806;2024-03-23T02:47:55;99701.44;;;25.10;39.23
50852;BME280;43953;45.508;-122.806;2024-03-23T02:48:27;99700.66;;;25.09;39.26
50852;BME280;43953;45.508;-122.806;2024-03-23T02:48:59;99697.88;;;25.09;39.26
50852;BME280;43953;45.508;-122.806;2024-03-23T02:49:32;99699.03;;;25.08;39.45
50852;BME280;43953;45.508;-122.806;2024-03-23T02:50:04;99702.59;;;25.09;39.50
50852;BME280;43953;45.508;-122.806;2024-03-23T02:50:35;99695.44;;;25.08;39.48
50852;BME280;43953;45.508;-122.806;2024-03-23T02:51:07;99701.78;;;25.08;39.60
50852;BME280;43953;45.508;-122.806;2024-03-23T02:51:39;99698.22;;;25.08;39.69
50852;BME280;43953;45.508;-122.806;2024-03-23T02:52:12;99688.34;;;25.07;39.54
50852;BME280;43953;45.508;-122.806;2024-03-23T02:52:43;99691.09;;;25.07;39.50
50852;BME280;43953;45.508;-122.806;2024-03-23T02:53:15;99690.28;;;25.06;39.50
50852;BME280;43953;45.508;-122.806;2024-03-23T02:53:47;99690.28;;;25.06;39.61
50852;BME280;43953;45.508;-122.806;2024-03-23T02:54:19;99677.31;;;25.07;39.61
50852;BME280;43953;45.508;-122.806;2024-03-23T02:54:50;99682.84;;;25.07;39.72
50852;BME280;43953;45.508;-122.806;2024-03-23T02:55:22;99672.13;;;25.05;39.73
50852;BME280;43953;45.508;-122.806;2024-03-23T02:55:57;99667.47;;;25.06;39.83
50852;BME280;43953;45.508;-122.806;2024-03-23T02:56:28;99669.72;;;25.04;39.82
50852;BME280;43953;45.508;-122.806;2024-03-23T02:57:00;99656.75;;;25.04;39.93
50852;BME280;43953;45.508;-122.806;2024-03-23T02:57:32;99655.16;;;25.03;39.84
50852;BME280;43953;45.508;-122.806;2024-03-23T02:58:04;99653.19;;;25.04;39.69
50852;BME280;43953;45.508;-122.806;2024-03-23T02:58:36;99649.66;;;25.03;39.89
50852;BME280;43953;45.508;-122.806;2024-03-23T02:59:07;99644.94;;;25.04;39.61
50852;BME280;43953;45.508;-122.806;2024-03-23T02:59:39;99644.94;;;25.04;39.48
50852;BME280;43953;45.508;-122.806;2024-03-23T03:00:11;99644.13;;;25.03;39.69
50852;BME280;43953;45.508;-122.806;2024-03-23T03:00:44;99654.34;;;25.03;39.54
50852;BME280;43953;45.508;-122.806;2024-03-23T03:01:15;99650.44;;;25.04;39.50
50852;BME280;43953;45.508;-122.806;2024-03-23T03:01:47;99653.19;;;25.04;39.82
50852;BME280;43953;45.508;-122.806;2024-03-23T03:02:19;99665.38;;;25.03;39.59
50852;BME280;43953;45.508;-122.806;2024-03-23T03:02:52;99665.38;;;25.03;39.65
50852;BME280;43953;45.508;-122.806;2024-03-23T03:03:24;99675.53;;;25.02;39.79
50852;BME280;43953;45.508;-122.806;2024-03-23T03:03:55;99669.72;;;25.04;39.51
50852;BME280;43953;45.508;-122.806;2024-03-23T03:04:27;99672.47;;;25.04;39.63
50852;BME280;43953;45.508;-122.806;2024-03-23T03:04:59;99671.69;;;25.03;39.76
50852;BME280;43953;45.508;-122.806;2024-03-23T03:05:31;99670.88;;;25.03;39.59
50852;BME280;43953;45.508;-122.806;2024-03-23T03:06:03;99668.13;;;25.03;39.61
50852;BME280;43953;45.508;-122.806;2024-03-23T03:06:35;99673.28;;;25.04;39.57
50852;BME280;43953;45.508;-122.806;2024-03-23T03:07:06;99676.84;;;25.05;39.44
50852;BME280;43953;45.508;-122.806;2024-03-23T03:07:38;99673.28;;;25.04;39.54
50852;BME280;43953;45.508;-122.806;2024-03-23T03:08:12;99671.69;;;25.03;39.55
50852;BME280;43953;45.508;-122.806;2024-03-23T03:08:43;99673.28;;;25.04;39.61
50852;BME280;43953;45.508;-122.806;2024-03-23T03:09:15;99669.72;;;25.04;39.54
50852;BME280;43953;45.508;-122.806;2024-03-23T03:09:47;99674.44;;;25.03;39.58
50852;BME280;43953;45.508;-122.806;2024-03-23T03:10:18;99679.94;;;25.03;39.47
50852;BME280;43953;45.508;-122.806;2024-03-23T03:10:50;99674.44;;;25.03;39.40
50852;BME280;43953;45.508;-122.806;2024-03-23T03:11:22;99671.69;;;25.03;39.47
50852;BME280;43953;45.508;-122.806;2024-03-23T03:11:53;99678.78;;;25.04;39.83
50852;BME280;43953;45.508;-122.806;2024-03-23T03:12:25;99674.09;;;25.05;39.59
50852;BME280;43953;45.508;-122.806;2024-03-23T03:12:58;99675.38;;;25.07;39.93
50852;BME280;43953;45.508;-122.806;2024-03-23T03:13:30;99669.88;;;25.07;39.94
50852;BME280;43953;45.508;-122.806;2024-03-23T03:14:01;99673.41;;;25.08;39.64
50852;BME280;43953;45.508;-122.806;2024-03-23T03:14:34;99674.25;;;25.08;39.98
50852;BME280;43953;45.508;-122.806;2024-03-23T03:15:06;99676.66;;;25.10;39.73
50852;BME280;43953;45.508;-122.806;2024-03-23T03:15:43;99672.75;;;25.11;39.77
50852;BME280;43953;45.508;-122.806;2024-03-23T03:16:15;99676.00;;;25.13;39.72
50852;BME280;43953;45.508;-122.806;2024-03-23T03:16:46;99676.00;;;25.13;39.98
50852;BME280;43953;45.508;-122.806;2024-03-23T03:17:18;99674.88;;;25.14;39.79
50852;BME280;43953;45.508;-122.806;2024-03-23T03:17:50;99678.47;;;25.14;39.61
50852;BME280;43953;45.508;-122.806;2024-03-23T03:18:22;99677.81;;;25.17;39.78
50852;BME280;43953;45.508;-122.806;2024-03-23T03:18:53;99682.97;;;25.19;39.89
50852;BME280;43953;45.508;-122.806;2024-03-23T03:19:25;99681.81;;;25.20;39.90
50852;BME280;43953;45.508;-122.806;2024-03-23T03:19:57;99679.53;;;25.22;39.79
50852;BME280;43953;45.508;-122.806;2024-03-23T03:20:29;99692.19;;;25.23;39.80
50852;BME280;43953;45.508;-122.806;2024-03-23T03:21:00;99685.19;;;25.26;39.83
50852;BME280;43953;45.508;-122.806;2024-03-23T03:21:33;99690.38;;;25.27;39.55
50852;BME280;43953;45.508;-122.806;2024-03-23T03:22:04;99690.88;;;25.29;39.77
50852;BME280;43953;45.508;-122.806;2024-03-23T03:22:36;99688.56;;;25.31;39.59
50852;BME280;43953;45.508;-122.806;2024-03-23T03:23:08;99686.59;;;25.32;39.53
50852;BME280;43953;45.508;-122.806;2024-03-23T03:23:41;99688.25;;;25.33;39.68
50852;BME280;43953;45.508;-122.806;2024-03-23T03:24:14;99689.06;;;25.33;39.22
50852;BME280;43953;45.508;-122.806;2024-03-23T03:24:45;99683.53;;;25.33;39.16
50852;BME280;43953;45.508;-122.806;2024-03-23T03:25:17;99687.09;;;25.34;39.38
50852;BME280;43953;45.508;-122.806;2024-03-23T03:25:49;99691.00;;;25.33;39.23
50852;BME280;43953;45.508;-122.806;2024-03-23T03:26:20;99686.28;;;25.33;39.15
50852;BME280;43953;45.508;-122.806;2024-03-23T03:26:52;99686.28;;;25.33;39.14
50852;BME280;43953;45.508;-122.806;2024-03-23T03:27:24;99678.03;;;25.33;39.41
50852;BME280;43953;45.508;-122.806;2024-03-23T03:27:56;99674.91;;;25.35;39.44
50852;BME280;43953;45.508;-122.806;2024-03-23T03:28:27;99684.03;;;25.35;39.33
50852;BME280;43953;45.508;-122.806;2024-03-23T03:29:02;99678.50;;;25.35;39.27
50852;BME280;43953;45.508;-122.806;2024-03-23T03:29:34;99680.91;;;25.37;39.26
50852;BME280;43953;45.508;-122.806;2024-03-23T03:30:07;99672.66;;;25.37;39.26
50852;BME280;43953;45.508;-122.806;2024-03-23T03:30:39;99669.09;;;25.36;39.19
50852;BME280;43953;45.508;-122.806;2024-03-23T03:31:11;99673.47;;;25.37;39.43
50852;BME280;43953;45.508;-122.806;2024-03-23T03:31:43;99663.59;;;25.36;39.41
50852;BME280;43953;45.508;-122.806;2024-03-23T03:32:15;99661.16;;;25.35;39.30
50852;BME280;43953;45.508;-122.806;2024-03-23T03:32:47;99658.88;;;25.37;39.26
50852;BME280;43953;45.508;-122.806;2024-03-23T03:33:18;99655.63;;;25.35;39.38
50852;BME280;43953;45.508;-122.806;2024-03-23T03:33:50;99653.38;;;25.37;39.28
50852;BME280;43953;45.508;-122.806;2024-03-23T03:34:22;99645.91;;;25.37;39.07
50852;BME280;43953;45.508;-122.806;2024-03-23T03:34:54;99641.53;;;25.36;39.21
50852;BME280;43953;45.508;-122.806;2024-03-23T03:35:26;99645.09;;;25.37;39.32